Time;durP1;ratioP1;P1;durP2;ratioP2;P2;SDS_P1;SDS_P2;PMS_P1;PMS_P2;Temp;Humidity;BMP_temperature;BMP_pressure;BME280_temperature;BME280_humidity;BME280_pressure;Samples;Min_cycle;Max_cycle;Signal;HPM_P1;HPM_P2
2022/04/19 00:02:19;;;;;;;5.43;5.03;;;5.70;99.90;;;6.57;69.45;97656.22;5221030;28;20244;-51
2022/04/19 00:04:52;;;;;;;5.33;4.93;;;5.70;99.90;;;6.59;69.23;97648.72;5222822;28;20295;-51
2022/04/19 00:07:26;;;;;;;5.20;4.80;;;5.70;99.90;;;6.61;68.98;97650.59;5223058;28;20205;-52
2022/04/19 00:09:59;;;;;;;5.47;4.97;;;5.60;99.90;;;6.59;68.92;97647.06;5222726;28;20243;-55
2022/04/19 00:12:33;;;;;;;5.03;4.63;;;5.60;99.90;;;6.52;69.41;97647.38;5221892;28;20201;-55
2022/04/19 00:15:09;;;;;;;4.77;4.47;;;5.50;99.90;;;6.45;68.63;97642.69;5221700;28;20237;-56
2022/04/19 00:17:42;;;;;;;5.20;4.90;;;5.40;99.90;;;6.36;69.59;97637.84;5222177;28;20228;-52
2022/04/19 00:20:15;;;;;;;5.53;4.97;;;5.40;99.90;;;6.23;70.25;97641.16;5224231;28;20232;-57
2022/04/19 00:22:49;;;;;;;4.70;4.40;;;5.30;99.90;;;6.20;70.83;97638.41;5225876;28;20194;-54
2022/04/19 00:25:23;;;;;;;4.67;4.40;;;5.30;99.90;;;6.14;70.62;97632.91;5225345;28;20282;-50
2022/04/19 00:27:57;;;;;;;5.13;4.77;;;5.30;99.90;;;6.16;71.36;97633.03;5226232;28;20286;-49
2022/04/19 00:30:30;;;;;;;5.40;4.97;;;5.30;99.90;;;6.17;71.15;97627.19;5225584;28;20288;-58
2022/04/19 00:33:03;;;;;;;5.60;5.20;;;5.20;99.90;;;6.17;71.21;97622.97;5225029;28;20291;-51
2022/04/19 00:35:38;;;;;;;5.17;4.80;;;5.20;99.90;;;6.13;71.05;97628.63;5223605;28;20665;-55
2022/04/19 00:38:11;;;;;;;5.17;4.73;;;5.20;99.90;;;6.10;71.41;97623.34;5223354;28;20422;-50
2022/04/19 00:40:44;;;;;;;5.60;5.20;;;5.20;99.90;;;6.05;72.04;97625.56;5224442;28;20241;-50
2022/04/19 00:43:19;;;;;;;4.77;4.47;;;5.20;99.90;;;6.07;72.13;97623.13;5224917;28;20208;-52
2022/04/19 00:45:52;;;;;;;5.43;4.93;;;5.30;99.90;;;6.07;71.27;97626.53;5224223;28;20267;-51
2022/04/19 00:48:25;;;;;;;5.33;4.93;;;5.20;99.90;;;6.06;71.68;97623.88;5225129;28;20255;-55
2022/04/19 00:51:00;;;;;;;4.77;4.47;;;5.20;99.90;;;6.02;71.68;97621.91;5225604;28;20242;-52
2022/04/19 00:53:34;;;;;;;5.37;4.97;;;5.10;99.90;;;5.98;72.89;97612.31;5222654;28;20724;-50
2022/04/19 00:56:08;;;;;;;5.13;4.73;;;5.20;99.90;;;5.84;72.08;97612.22;5225654;28;20418;-53
2022/04/19 00:58:43;;;;;;;5.30;4.93;;;5.00;99.90;;;5.81;72.90;97606.91;5227404;28;20258;-53
2022/04/19 01:01:16;;;;;;;5.43;5.03;;;4.90;99.90;;;5.76;72.49;97613.31;5225032;28;20251;-51
2022/04/19 01:03:49;;;;;;;5.13;4.77;;;4.90;99.90;;;5.77;73.54;97604.91;5223533;28;20213;-52
2022/04/19 01:06:22;;;;;;;5.53;5.13;;;5.00;99.90;;;5.76;73.05;97598.09;5224316;28;20253;-53
2022/04/19 01:08:56;;;;;;;5.47;5.13;;;5.00;99.90;;;5.76;73.10;97587.94;5225083;28;20218;-50
2022/04/19 01:14:22;;;;;;;5.33;4.93;;;4.90;99.90;;;5.66;73.11;97595.66;5223332;28;20250;-53
2022/04/19 01:16:56;;;;;;;5.20;4.70;;;4.80;99.90;;;5.61;72.80;97597.03;5224799;28;20244;-54
2022/04/19 01:19:31;;;;;;;5.30;5.00;;;4.70;99.90;;;5.56;72.31;97588.19;5224438;28;20316;-53
2022/04/19 01:22:07;;;;;;;5.13;4.73;;;4.70;99.90;;;5.16;73.70;97573.50;5223460;28;20228;-56
2022/04/19 01:24:43;;;;;;;5.17;4.67;;;4.40;99.90;;;5.29;73.63;97582.00;5220477;28;20557;-57
2022/04/19 01:27:16;;;;;;;5.10;4.70;;;4.40;99.90;;;5.31;73.68;97578.81;5221804;28;20201;-53
2022/04/19 01:29:49;;;;;;;5.43;5.03;;;4.50;99.90;;;5.35;74.13;97575.75;5224313;28;20288;-56
2022/04/19 01:32:23;;;;;;;5.67;5.27;;;4.60;99.90;;;5.29;73.80;97577.81;5222457;28;20301;-52
2022/04/19 01:35:08;;;;;;;5.10;4.80;;;4.50;99.90;;;5.26;73.66;97566.56;5222604;28;20219;-55
2022/04/19 01:37:45;;;;;;;4.63;4.33;;;4.50;99.90;;;5.21;74.80;97566.25;5223580;28;20295;-50
2022/04/19 01:40:19;;;;;;;5.33;5.03;;;4.50;99.90;;;5.16;74.28;97570.97;5221882;28;20300;-51
2022/04/19 01:42:54;;;;;;;5.70;5.30;;;4.40;99.90;;;5.23;73.84;97569.75;5223703;28;20236;-50
2022/04/19 01:45:29;;;;;;;5.03;4.63;;;4.40;99.90;;;5.20;74.12;97565.34;5224777;28;20661;-55
2022/04/19 01:48:03;;;;;;;5.10;4.70;;;4.40;99.90;;;5.23;74.34;97567.22;5224595;28;20204;-51
2022/04/19 01:50:39;;;;;;;5.27;4.97;;;4.40;99.90;;;5.28;73.96;97570.97;5224837;28;20193;-53
2022/04/19 01:53:14;;;;;;;5.37;4.97;;;4.40;99.90;;;5.23;73.65;97569.75;5222895;28;20204;-54
2022/04/19 01:55:47;;;;;;;5.60;5.20;;;4.30;99.90;;;5.16;73.76;97565.03;5223693;28;20258;-55
2022/04/19 01:58:20;;;;;;;6.00;5.50;;;4.20;99.90;;;5.06;74.13;97566.00;5223793;28;20288;-54
2022/04/19 02:00:53;;;;;;;5.20;4.80;;;4.20;99.90;;;4.95;74.10;97575.38;5221960;28;20228;-52
2022/04/19 02:03:27;;;;;;;5.93;5.43;;;4.10;99.90;;;4.99;74.65;97568.88;5221645;28;20212;-54
2022/04/19 02:06:00;;;;;;;6.27;5.63;;;4.20;99.90;;;4.78;75.12;97569.78;5224894;28;20590;-55
2022/04/19 02:08:34;;;;;;;5.90;5.40;;;4.00;99.90;;;4.80;75.74;97566.63;5224579;28;20232;-53
2022/04/19 02:11:07;;;;;;;8.37;7.67;;;4.00;99.90;;;4.88;75.72;97563.00;5223969;28;20235;-53
2022/04/19 02:13:40;;;;;;;6.07;5.57;;;4.10;99.90;;;4.86;75.83;97564.53;5219766;28;20291;-52
2022/04/19 02:16:14;;;;;;;5.73;5.33;;;4.00;99.90;;;4.83;76.09;97559.25;5221885;28;20232;-52
2022/04/19 02:18:48;;;;;;;5.03;4.73;;;4.10;99.90;;;4.87;75.85;97555.31;5223128;28;20672;-53
2022/04/19 02:21:21;;;;;;;5.70;5.30;;;4.10;99.90;;;4.89;75.87;97552.13;5224691;28;20232;-54
2022/04/19 02:23:55;;;;;;;5.73;5.33;;;4.10;99.90;;;4.86;75.32;97554.41;5220434;28;20202;-55
2022/04/19 02:26:29;;;;;;;5.67;5.17;;;4.00;99.90;;;4.85;76.05;97555.19;5223872;28;20307;-55
2022/04/19 02:29:02;;;;;;;5.37;5.07;;;4.00;99.90;;;4.84;75.64;97555.09;5219423;28;20295;-53
2022/04/19 02:31:35;;;;;;;5.70;5.30;;;4.00;99.90;;;4.85;75.72;97552.66;5218406;28;20289;-51
2022/04/19 02:34:08;;;;;;;5.40;5.00;;;4.10;99.90;;;4.92;75.91;97553.97;5224021;28;20309;-52
2022/04/19 02:36:41;;;;;;;6.00;5.40;;;4.10;99.90;;;4.94;75.71;97558.38;5222366;28;20284;-54
2022/04/19 02:39:16;;;;;;;5.67;5.20;;;4.10;99.90;;;4.92;75.25;97551.44;5223855;28;20288;-53
2022/04/19 02:41:50;;;;;;;6.00;5.50;;;4.20;99.90;;;4.88;75.82;97552.88;5222207;28;20333;-54
2022/04/19 02:44:23;;;;;;;5.37;5.00;;;4.10;99.90;;;4.86;75.58;97549.34;5223722;28;20225;-53
2022/04/19 02:46:56;;;;;;;5.80;5.40;;;4.10;99.90;;;4.83;76.01;97555.84;5222639;28;20272;-54
2022/04/19 02:49:29;;;;;;;5.27;4.87;;;4.00;99.90;;;4.88;75.59;97550.34;5228516;28;20672;-52
2022/04/19 02:52:02;;;;;;;5.77;5.37;;;4.00;99.90;;;4.86;76.01;97549.34;5223858;28;20310;-54
2022/04/19 02:54:37;;;;;;;5.30;4.80;;;4.10;99.90;;;4.86;76.31;97554.41;5222309;28;20222;-51
2022/04/19 02:57:14;;;;;;;6.20;5.73;;;4.10;99.90;;;4.91;75.88;97544.63;5223230;28;20204;-53
2022/04/19 02:59:48;;;;;;;5.37;4.97;;;4.10;99.90;;;4.83;76.29;97558.38;5222753;28;20224;-56
2022/04/19 03:02:21;;;;;;;5.27;4.97;;;4.10;99.90;;;4.86;75.11;97559.47;5221899;28;20632;-54
2022/04/19 03:04:54;;;;;;;5.90;5.33;;;4.00;99.90;;;4.85;75.82;97552.66;5221503;28;20205;-54
2022/04/19 03:07:27;;;;;;;5.37;4.90;;;4.00;99.90;;;4.74;75.57;97553.50;5223694;28;20193;-54
2022/04/19 03:10:02;;;;;;;6.30;5.77;;;3.90;99.90;;;4.59;76.94;97552.38;5222409;28;20219;-53
2022/04/19 03:12:35;;;;;;;5.43;5.03;;;3.80;99.90;;;4.51;77.16;97552.66;5222402;28;20292;-53
2022/04/19 03:15:10;;;;;;;5.67;5.27;;;3.70;99.90;;;4.47;76.74;97553.22;5221709;28;20222;-52
2022/04/19 03:17:43;;;;;;;5.57;5.13;;;3.60;99.90;;;4.37;77.44;97555.81;5222250;28;20201;-55
2022/04/19 03:20:16;;;;;;;6.00;5.50;;;3.60;99.90;;;4.38;76.58;97556.69;5223484;28;20224;-52
2022/04/19 03:28:32;;;;;;;6.03;5.63;;;3.50;99.90;;;4.40;76.99;97552.63;5222719;28;20293;-52
2022/04/19 03:31:05;;;;;;;5.57;5.17;;;3.50;99.90;;;4.42;76.94;97540.97;5221974;28;20305;-51
2022/04/19 03:33:38;;;;;;;5.93;5.53;;;3.50;99.90;;;4.43;76.73;97537.69;5217990;28;20210;-57
2022/04/19 03:36:11;;;;;;;5.47;5.17;;;3.60;99.90;;;4.41;76.64;97536.69;5221857;28;20708;-52
2022/04/19 03:38:44;;;;;;;5.87;5.47;;;3.60;99.90;;;4.41;76.18;97541.75;5221210;28;20235;-52
2022/04/19 03:41:19;;;;;;;5.40;5.00;;;3.50;99.90;;;4.34;76.54;97549.63;5222445;28;20236;-51
2022/04/19 03:43:54;;;;;;;5.90;5.50;;;3.50;99.90;;;4.35;76.86;97547.25;5220711;28;20266;-51
2022/04/19 03:46:27;;;;;;;5.80;5.30;;;3.50;99.90;;;4.29;77.19;97544.22;5222717;28;20622;-54
2022/04/19 03:49:00;;;;;;;5.90;5.50;;;3.50;99.90;;;4.24;77.08;97546.41;5222192;28;20205;-52
2022/04/19 03:51:33;;;;;;;5.90;5.50;;;3.40;99.90;;;4.17;77.52;97549.22;5222581;28;20198;-55
2022/04/19 03:54:06;;;;;;;5.90;5.40;;;3.30;99.90;;;4.19;77.24;97544.31;5221331;28;20537;-52
2022/04/19 03:56:41;;;;;;;5.63;5.23;;;3.30;99.90;;;4.24;78.15;97553.13;5222594;28;20742;-59
2022/04/19 03:59:14;;;;;;;5.57;5.20;;;3.50;99.90;;;4.31;77.20;97550.28;5224384;28;20564;-53
2022/04/19 04:01:47;;;;;;;5.23;4.73;;;3.50;99.90;;;4.42;76.68;97544.41;5222594;28;21039;-51
2022/04/19 04:04:21;;;;;;;5.53;5.23;;;3.50;99.90;;;4.41;76.91;97540.13;5209695;28;20677;-53
2022/04/19 04:06:54;;;;;;;5.60;5.20;;;3.50;99.90;;;4.34;77.56;97547.09;5224272;28;20221;-59
2022/04/19 04:09:32;;;;;;;5.03;4.63;;;3.50;99.90;;;4.34;76.91;97549.63;5219855;28;20734;-53
2022/04/19 04:12:11;;;;;;;5.80;5.30;;;3.50;99.90;;;4.26;76.27;97552.50;5223986;28;20239;-52
2022/04/19 04:14:44;;;;;;;5.80;5.40;;;3.40;99.90;;;4.06;76.53;97560.16;5221978;28;20552;-56
2022/04/19 04:17:20;;;;;;;6.63;5.47;;;3.30;99.90;;;3.93;77.87;97554.94;5228359;28;20209;-51
2022/04/19 04:19:55;;;;;;;5.57;5.07;;;3.10;99.90;;;3.94;78.13;97555.06;5228167;28;20207;-51
2022/04/19 04:22:29;;;;;;;5.37;4.97;;;3.10;99.90;;;4.01;77.91;97544.66;5225230;28;20210;-52
2022/04/19 04:25:03;;;;;;;6.23;5.73;;;3.20;99.90;;;4.04;78.03;97549.06;5224779;28;20305;-51
2022/04/19 04:27:37;;;;;;;5.20;4.80;;;3.20;99.90;;;4.13;78.26;97548.91;5223114;28;20314;-52
2022/04/19 04:30:11;;;;;;;5.70;5.30;;;3.30;99.90;;;4.22;77.50;97544.53;5226654;28;20206;-51
2022/04/19 04:32:44;;;;;;;5.73;5.23;;;3.40;99.90;;;4.26;77.24;97546.53;5223847;28;20282;-54
2022/04/19 04:35:17;;;;;;;5.23;4.93;;;3.40;99.90;;;4.25;76.87;97552.34;5226269;28;20310;-52
2022/04/19 04:37:50;;;;;;;5.50;5.10;;;3.40;99.90;;;4.33;77.26;97548.75;5224513;28;20639;-53
2022/04/19 04:40:23;;;;;;;5.67;5.27;;;3.40;99.90;;;4.37;77.34;97555.81;5223839;28;20324;-55
2022/04/19 04:42:58;;;;;;;6.10;5.60;;;3.50;99.90;;;4.41;76.83;97559.47;5224964;28;20673;-53
2022/04/19 04:45:31;;;;;;;5.20;4.87;;;3.50;99.90;;;4.44;77.19;97559.69;5226393;28;20654;-54
2022/04/19 04:50:56;;;;;;;5.77;5.27;;;3.70;99.90;;;4.56;77.18;97559.75;5222035;28;20263;-53
2022/04/19 04:53:30;;;;;;;6.00;5.60;;;3.80;99.90;;;4.49;76.10;97554.22;5223849;28;20266;-56
2022/04/19 04:56:04;;;;;;;9.13;7.90;;;3.70;99.90;;;4.46;75.94;97559.06;5222803;28;20256;-54
2022/04/19 04:58:38;;;;;;;13.37;11.50;;;3.60;99.90;;;4.56;76.06;97557.22;5223392;28;20284;-54
2022/04/19 05:01:11;;;;;;;14.40;11.90;;;3.60;99.90;;;4.66;75.81;97555.47;5225547;28;20249;-57
2022/04/19 05:03:44;;;;;;;10.20;9.07;;;3.70;99.90;;;4.74;76.49;97558.56;5225267;28;20199;-58
2022/04/19 05:06:18;;;;;;;11.90;10.70;;;3.90;99.90;;;4.78;75.93;97559.66;5226891;28;20241;-54
2022/04/19 05:08:51;;;;;;;6.77;6.17;;;4.00;99.90;;;4.78;75.53;97560.56;5222495;28;20222;-54
2022/04/19 05:11:24;;;;;;;6.63;6.13;;;3.90;99.90;;;4.83;76.86;97554.19;5224676;28;20285;-55
2022/04/19 05:13:58;;;;;;;6.10;5.60;;;4.10;99.90;;;4.94;74.96;97550.78;5221930;28;20615;-53
2022/04/19 05:16:35;;;;;;;6.37;5.87;;;4.00;99.90;;;4.87;75.42;97561.25;5225112;28;20217;-55
2022/04/19 05:19:08;;;;;;;6.40;6.00;;;4.00;99.90;;;4.93;75.11;97558.28;5226890;28;20295;-54
2022/04/19 05:21:41;;;;;;;6.20;5.73;;;4.00;99.90;;;5.30;75.49;97553.38;5223897;28;20310;-58
2022/04/19 05:24:14;;;;;;;5.93;5.53;;;4.30;99.90;;;5.73;73.60;97551.38;5218209;28;20235;-54
2022/04/19 05:26:47;;;;;;;6.37;5.77;;;4.60;99.90;;;5.96;71.69;97550.47;5219541;28;20225;-54
2022/04/19 05:29:22;;;;;;;5.53;5.00;;;4.90;99.90;;;6.57;70.64;97549.56;5225039;28;20229;-59
2022/04/19 05:31:55;;;;;;;5.87;5.47;;;5.30;99.90;;;7.05;69.11;97550.19;5222102;28;20228;-57
2022/04/19 05:34:28;;;;;;;5.70;5.20;;;5.70;99.90;;;7.55;66.62;97550.00;5227107;28;20242;-52
2022/04/19 05:37:01;;;;;;;6.10;5.70;;;6.00;99.90;;;7.87;65.55;97549.53;5223765;28;20217;-53
2022/04/19 05:39:34;;;;;;;6.13;5.63;;;6.40;99.90;;;8.11;64.23;97550.13;5227573;28;20233;-53
2022/04/19 05:42:08;;;;;;;7.50;6.60;;;6.80;99.90;;;8.62;63.35;97543.06;5221619;28;20226;-55
2022/04/19 05:44:44;;;;;;;5.27;4.87;;;7.10;99.90;;;8.90;61.65;97546.44;5223700;28;20284;-51
2022/04/19 05:47:17;;;;;;;6.53;4.57;;;7.50;99.90;;;9.09;60.99;97542.38;5223880;28;20296;-54
2022/04/19 05:49:51;;;;;;;4.70;4.40;;;7.80;99.80;;;9.53;59.74;97544.00;5221112;28;20636;-52
2022/04/19 05:52:24;;;;;;;4.93;4.53;;;7.90;99.00;;;9.92;58.95;97536.00;5215890;28;20743;-55
2022/04/19 05:54:57;;;;;;;5.00;4.60;;;8.20;98.80;;;9.52;57.59;97537.16;5225363;28;20673;-51
2022/04/19 05:57:30;;;;;;;4.73;4.43;;;8.20;98.30;;;9.64;58.50;97532.72;5223206;28;20228;-51
2022/04/19 06:00:07;;;;;;;5.57;5.17;;;8.10;98.70;;;9.66;58.83;97531.16;5224165;28;20287;-54
2022/04/19 06:05:31;;;;;;;5.60;5.20;;;8.60;98.10;;;10.91;55.04;97536.06;5227320;28;20213;-52
2022/04/19 06:08:05;;;;;;;5.43;4.93;;;9.10;97.20;;;11.40;53.56;97541.03;5226464;28;20289;-57
2022/04/19 06:10:38;;;;;;;4.93;4.50;;;9.40;96.40;;;11.52;52.77;97533.06;5219552;28;20702;-55
2022/04/19 06:13:11;;;;;;;5.70;5.20;;;9.60;95.70;;;11.74;52.59;97540.97;5228104;28;20620;-54
2022/04/19 06:15:45;;;;;;;5.37;4.87;;;9.70;95.90;;;12.21;51.09;97523.50;5224221;28;20224;-55
2022/04/19 06:18:18;;;;;;;5.17;4.77;;;9.90;95.10;;;12.47;50.52;97522.97;5220915;28;20201;-55
2022/04/19 06:20:53;;;;;;;5.73;5.33;;;10.20;94.90;;;12.56;50.02;97514.81;5223883;28;20645;-56
2022/04/19 06:23:26;;;;;;;4.97;4.57;;;10.30;94.50;;;12.75;49.91;97519.06;5229299;28;20612;-54
2022/04/19 06:26:00;;;;;;;5.40;4.95;;;10.50;94.10;;;12.88;48.95;97523.00;5225923;28;20259;-52
2022/04/19 06:28:33;;;;;;;4.93;4.53;;;10.70;93.50;;;13.41;48.37;97521.81;5221777;28;20286;-57
2022/04/19 06:31:07;;;;;;;5.07;4.60;;;11.00;93.10;;;13.62;47.15;97514.09;5220881;28;20205;-51
2022/04/19 06:33:40;;;;;;;4.50;4.10;;;11.20;92.50;;;13.90;46.46;97506.63;5219783;28;20217;-56
2022/04/19 06:36:13;;;;;;;4.47;4.18;;;11.50;92.20;;;14.00;45.22;97507.00;5222737;28;20308;-58
2022/04/19 06:38:46;;;;;;;5.00;4.60;;;11.40;91.80;;;14.07;45.71;97514.13;5225826;28;20203;-56
2022/04/19 06:41:19;;;;;;;4.50;4.20;;;11.70;91.80;;;14.36;44.69;97505.78;5223682;28;20328;-57
2022/04/19 06:43:57;;;;;;;4.40;4.00;;;12.00;91.30;;;14.48;44.61;97507.94;5225584;28;20269;-56
2022/04/19 06:46:31;;;;;;;4.80;3.85;;;12.00;91.20;;;14.33;46.12;97502.22;5224913;28;20294;-58
2022/04/19 06:49:05;;;;;;;5.78;4.40;;;12.10;91.30;;;14.87;44.49;97508.50;5226055;28;20278;-58
2022/04/19 06:51:38;;;;;;;4.97;4.53;;;12.30;91.00;;;14.98;44.47;97506.28;5224478;28;20201;-57
2022/04/19 06:54:12;;;;;;;6.60;5.22;;;12.60;90.40;;;15.20;44.41;97518.19;5225983;28;20284;-55
2022/04/19 06:56:45;;;;;;;5.25;4.82;;;12.80;90.20;;;15.54;43.03;97509.00;5225706;28;20706;-56
2022/04/19 06:59:19;;;;;;;4.95;4.53;;;13.00;89.20;;;15.84;42.19;97505.66;5226182;28;20622;-54
2022/04/19 07:01:53;;;;;;;5.38;4.70;;;13.30;88.40;;;16.09;41.79;97504.69;5224104;28;20256;-55
2022/04/19 07:04:26;;;;;;;5.05;4.65;;;13.50;87.70;;;16.29;41.48;97507.84;5224748;28;20568;-54
2022/04/19 07:07:01;;;;;;;5.22;4.72;;;13.70;87.10;;;16.23;41.26;97505.09;5225795;28;20315;-54
2022/04/19 07:09:34;;;;;;;4.75;4.35;;;13.90;85.80;;;16.58;40.32;97501.78;5225869;28;20244;-55
2022/04/19 07:12:09;;;;;;;6.28;4.57;;;14.20;84.60;;;16.84;40.41;97506.84;5223928;28;20288;-54
2022/04/19 07:14:42;;;;;;;4.55;4.15;;;14.50;84.50;;;17.01;38.52;97505.56;5223480;28;20197;-56
2022/04/19 07:17:17;;;;;;;5.80;4.32;;;14.70;82.20;;;17.37;38.57;97506.44;5221729;28;20215;-59
2022/04/19 07:28:27;;;;;;;4.50;4.20;;;15.50;79.10;;;18.41;36.13;97494.19;5225760;28;20637;-57
2022/04/19 07:31:01;;;;;;;4.82;4.45;;;15.70;77.70;;;18.63;35.06;97497.22;5223463;28;20204;-57
2022/04/19 07:33:38;;;;;;;4.80;4.43;;;15.60;76.80;;;18.55;35.14;97496.19;5223691;28;20201;-59
2022/04/19 07:36:11;;;;;;;4.57;4.15;;;15.70;76.70;;;18.57;34.92;97499.66;5225203;28;20659;-56
2022/04/19 07:38:50;;;;;;;4.88;4.47;;;16.10;75.50;;;18.45;34.27;97492.53;5219097;28;20205;-57
2022/04/19 07:41:23;;;;;;;4.63;4.32;;;16.00;73.60;;;18.43;34.64;97497.69;5225060;28;20236;-56
2022/04/19 07:43:56;;;;;;;4.55;4.22;;;16.20;74.40;;;18.50;35.07;97492.63;5225437;28;20220;-52
2022/04/19 07:46:29;;;;;;;4.35;4.00;;;16.10;74.80;;;18.69;34.62;97494.75;5225402;28;20317;-55
2022/04/19 07:49:04;;;;;;;4.55;4.20;;;16.30;73.60;;;18.79;34.53;97491.50;5219139;28;20197;-54
2022/04/19 07:51:38;;;;;;;4.72;4.20;;;16.60;73.00;;;18.52;34.59;97498.72;5223349;28;20193;-54
2022/04/19 07:54:11;;;;;;;4.28;3.97;;;16.70;73.70;;;18.36;35.63;97490.63;5222754;28;20677;-54
2022/04/19 07:56:44;;;;;;;4.35;4.05;;;16.60;74.70;;;18.76;33.88;97496.63;5223656;28;20308;-56
2022/04/19 07:59:17;;;;;;;5.22;4.78;;;16.90;71.20;;;18.76;33.88;97500.94;5225363;28;20205;-52
2022/04/19 08:01:50;;;;;;;4.38;3.97;;;16.90;71.20;;;18.87;34.02;97495.09;5224712;28;20280;-50
2022/04/19 08:04:25;;;;;;;4.70;4.30;;;17.10;71.20;;;18.79;34.30;97493.22;5221311;28;20657;-52
2022/04/19 08:06:59;;;;;;;4.40;4.10;;;17.10;71.60;;;18.93;33.94;97493.47;5221038;28;20294;-54
2022/04/19 08:09:32;;;;;;;4.28;3.88;;;17.20;70.80;;;18.93;33.57;97488.31;5222904;28;20212;-52
2022/04/19 08:12:08;;;;;;;4.40;4.00;;;17.40;70.10;;;19.07;33.82;97484.25;5223570;28;20271;-51
2022/04/19 08:14:41;;;;;;;4.10;3.80;;;17.70;69.80;;;19.13;33.97;97485.19;5217097;28;20233;-50
2022/04/19 08:17:15;;;;;;;4.70;4.30;;;17.60;70.20;;;19.40;33.65;97483.94;5224883;28;20201;-52
2022/04/19 08:19:49;;;;;;;4.88;4.47;;;18.10;68.70;;;19.27;33.73;97475.06;5225340;28;20271;-55
2022/04/19 08:22:23;;;;;;;4.75;4.32;;;17.90;69.30;;;19.51;33.93;97469.41;5216092;28;20350;-57
2022/04/19 08:24:56;;;;;;;4.35;4.05;;;18.00;69.50;;;19.53;33.58;97465.13;5224366;28;20225;-54
2022/04/19 08:27:30;;;;;;;4.38;4.03;;;18.10;69.00;;;19.64;33.11;97469.59;5222365;28;20243;-54
2022/04/19 08:30:04;;;;;;;4.60;4.20;;;18.20;68.50;;;19.60;32.55;97460.88;5225082;28;20193;-53
2022/04/19 08:32:37;;;;;;;5.15;4.70;;;18.20;67.10;;;19.59;33.04;97466.94;5221784;28;20669;-52
2022/04/19 08:35:13;;;;;;;4.22;3.80;;;18.20;68.10;;;19.64;32.84;97456.66;5224712;28;20760;-55
2022/04/19 08:37:46;;;;;;;4.88;4.45;;;18.30;67.60;;;19.74;32.41;97455.94;5224848;28;20220;-53
2022/04/19 08:40:21;;;;;;;4.70;4.30;;;18.50;66.60;;;19.58;32.23;97454.84;5223698;28;20193;-55
2022/04/19 08:42:56;;;;;;;4.35;4.00;;;18.40;66.20;;;19.77;32.62;97449.09;5227576;28;20285;-56
2022/04/19 08:45:29;;;;;;;4.32;3.92;;;18.70;66.80;;;19.23;33.38;97457.75;5228758;28;20780;-52
2022/04/19 08:48:05;;;;;;;4.70;4.30;;;18.40;67.00;;;19.39;33.07;97447.63;5228581;28;20713;-56
2022/04/19 08:50:39;;;;;;;4.35;3.95;;;18.20;67.40;;;18.97;33.84;97453.81;5228447;28;20220;-55
2022/04/19 08:58:56;;;;;;;4.43;4.03;;;18.70;66.10;;;19.84;31.91;97441.41;5229597;28;20225;-57
2022/04/19 09:01:30;;;;;;;4.38;4.00;;;18.80;64.20;;;19.84;31.53;97446.59;5227726;28;20201;-56
2022/04/19 09:04:04;;;;;;;4.30;3.78;;;18.60;64.70;;;19.72;31.23;97437.78;5228164;28;20209;-55
2022/04/19 09:06:56;;;;;;;4.30;4.00;;;18.70;64.00;;;19.72;31.70;97432.59;5219783;28;20221;-58
2022/04/19 09:09:34;;;;;;;4.80;4.40;;;18.70;64.70;;;19.87;30.65;97441.44;5226947;28;20205;-56
2022/04/19 09:12:11;;;;;;;3.95;3.65;;;18.90;62.30;;;19.89;31.04;97430.25;5227095;28;20588;-55
2022/04/19 09:14:56;;;;;;;4.32;4.00;;;18.90;63.20;;;19.95;32.11;97429.44;5221334;28;20192;-58
2022/04/19 09:17:32;;;;;;;3.85;3.55;;;19.20;64.50;;;19.86;32.24;97424.13;5228805;28;20194;-58
2022/04/19 09:20:11;;;;;;;5.20;4.35;;;19.00;64.60;;;19.94;30.40;97430.28;5228758;28;20205;-55
2022/04/19 09:22:48;;;;;;;4.60;4.20;;;19.00;61.80;;;20.01;30.38;97421.75;5218785;28;20221;-56
2022/04/19 09:25:25;;;;;;;4.10;3.53;;;19.20;61.70;;;19.88;32.64;97425.00;5228400;28;20231;-57
2022/04/19 09:27:59;;;;;;;4.25;3.92;;;19.10;64.90;;;19.91;28.88;97422.47;5228462;28;20197;-56
2022/04/19 09:30:35;;;;;;;5.00;4.60;;;19.10;58.90;;;20.08;27.64;97418.34;5228165;28;20200;-54
2022/04/19 09:33:16;;;;;;;4.35;4.05;;;19.30;57.20;;;20.19;29.11;97408.97;5228077;28;20197;-57
2022/04/19 09:35:53;;;;;;;4.88;3.72;;;19.40;59.40;;;20.12;29.77;97417.56;5228116;28;20213;-57
2022/04/19 09:38:39;;;;;;;4.13;3.83;;;19.40;60.00;;;20.17;29.24;97405.53;5226609;28;20215;-57
2022/04/19 09:41:17;;;;;;;4.57;4.20;;;19.50;59.10;;;20.12;29.58;97416.69;5229926;28;20200;-56
2022/04/19 09:44:07;;;;;;;4.45;4.15;;;19.30;59.90;;;20.22;27.62;97408.16;5217212;28;20263;-56
2022/04/19 09:46:41;;;;;;;4.68;4.32;;;19.10;57.60;;;19.93;30.53;97403.47;5219295;28;20248;-56
2022/04/19 09:49:15;;;;;;;4.72;4.38;;;19.10;60.90;;;19.85;30.06;97404.22;5227730;28;20219;-54
2022/04/19 09:51:48;;;;;;;4.75;4.30;;;19.20;59.80;;;19.73;28.45;97408.41;5225143;28;20205;-57
2022/04/19 09:54:23;;;;;;;4.85;4.45;;;19.00;57.90;;;19.84;30.32;97405.09;5222395;28;20233;-55
2022/04/19 09:56:57;;;;;;;4.95;4.40;;;19.00;60.70;;;19.66;29.33;97401.41;5227495;28;20692;-57
2022/04/19 09:59:32;;;;;;;4.05;3.75;;;18.90;59.10;;;19.66;29.39;97401.41;5228185;28;20228;-55
2022/04/19 10:10:43;;;;;;;4.40;4.10;;;19.20;57.80;;;19.82;29.89;97404.19;5226042;28;20289;-57
2022/04/19 10:13:19;;;;;;;4.88;4.22;;;19.20;59.40;;;19.90;29.03;97402.56;5228475;28;20204;-57
2022/04/19 10:15:53;;;;;;;4.47;4.07;;;19.30;58.10;;;19.85;27.79;97401.63;5227202;28;20228;-56
2022/04/19 10:18:27;;;;;;;4.50;4.10;;;19.30;56.90;;;20.03;28.09;97392.38;5224811;28;20248;-53
2022/04/19 10:21:03;;;;;;;3.80;3.60;;;19.20;57.40;;;19.84;28.85;97389.53;5219106;28;20199;-58
2022/04/19 10:23:39;;;;;;;4.40;4.05;;;19.00;58.80;;;19.77;28.29;97379.06;5226729;28;20205;-57
2022/04/19 10:26:22;;;;;;;4.25;3.90;;;19.10;57.70;;;19.75;29.65;97383.38;5228157;28;20301;-57
2022/04/19 10:28:58;;;;;;;4.22;3.92;;;19.10;59.30;;;19.68;29.35;97378.94;5227648;28;20266;-55
2022/04/19 10:31:35;;;;;;;3.92;3.63;;;18.90;59.30;;;19.22;29.13;97383.44;5226123;28;20193;-58
2022/04/19 10:34:08;;;;;;;4.18;3.88;;;18.60;58.60;;;19.31;28.67;97382.69;5228141;28;20239;-58
2022/04/19 10:36:42;;;;;;;4.45;4.15;;;18.50;57.40;;;19.21;28.88;97386.00;5228382;28;20316;-53
2022/04/19 10:39:44;;;;;;;3.92;3.53;;;18.50;58.30;;;19.35;30.00;97381.91;5225106;28;20270;-58
2022/04/19 10:42:32;;;;;;;4.20;3.90;;;18.60;59.80;;;19.46;29.32;97369.06;5226962;28;20193;-56
2022/04/19 10:45:25;;;;;;;5.15;4.03;;;18.60;58.80;;;19.62;28.52;97370.19;5218109;28;20228;-57
2022/04/19 10:48:07;;;;;;;4.43;4.13;;;18.90;58.00;;;19.69;29.49;97359.94;5226358;28;20232;-57
2022/04/19 10:50:44;;;;;;;4.88;4.40;;;19.00;59.20;;;19.52;28.55;97361.41;5219328;28;20679;-53
2022/04/19 10:53:17;;;;;;;5.10;4.60;;;19.00;57.40;;;19.45;28.47;97355.25;5224657;28;20732;-55
2022/04/19 10:56:05;;;;;;;4.82;4.43;;;18.80;57.50;;;19.40;29.05;97351.75;5224695;28;20307;-57
2022/04/19 10:58:41;;;;;;;4.80;4.40;;;18.60;58.30;;;19.28;28.97;97352.41;5224400;28;20628;-53
2022/04/19 11:01:30;;;;;;;4.10;3.80;;;18.60;58.30;;;19.15;30.87;97345.34;5225658;28;20197;-58
2022/04/19 11:04:04;;;;;;;5.10;4.70;;;18.50;60.60;;;18.81;29.48;97349.97;5225771;28;20737;-57
2022/04/19 11:06:40;;;;;;;5.15;4.78;;;18.20;58.70;;;18.63;29.36;97360.00;5222684;28;20286;-56
2022/04/19 11:09:24;;;;;;;5.00;4.50;;;17.90;58.60;;;18.68;30.95;97341.13;5225880;28;20219;-56
2022/04/19 11:12:09;;;;;;;4.95;4.55;;;18.00;60.30;;;18.64;30.13;97341.03;5225263;28;20197;-58
2022/04/19 11:14:44;;;;;;;4.78;4.38;;;18.10;59.50;;;18.75;30.55;97341.25;5224485;28;20617;-58
2022/04/19 11:17:42;;;;;;;4.88;4.47;;;18.20;60.00;;;18.97;31.96;97329.50;5223843;28;20270;-58
2022/04/19 11:20:16;;;;;;;5.47;5.00;;;18.40;62.30;;;18.98;30.58;97341.63;5224774;28;20201;-58
2022/04/19 11:22:52;;;;;;;5.40;5.00;;;18.40;59.70;;;19.06;31.93;97325.34;5217788;28;20209;-58
2022/04/19 11:25:48;;;;;;;5.40;5.00;;;18.50;61.50;;;19.12;31.59;97332.34;5223242;28;20216;-56
2022/04/19 11:28:24;;;;;;;5.57;5.03;;;18.50;61.20;;;19.09;30.94;97329.69;5219848;28;20657;-58
2022/04/19 11:31:15;;;;;;;5.05;4.65;;;18.40;60.30;;;19.32;29.67;97322.25;5225517;28;20285;-57
2022/04/19 11:33:49;;;;;;;5.15;4.57;;;18.50;59.00;;;19.16;31.39;97321.16;5218411;28;20672;-58
2022/04/19 11:36:23;;;;;;;6.13;5.63;;;18.50;61.60;;;19.10;31.07;97310.72;5225674;28;20259;-58